Airfield :
LOGIN :

Register | Disclaimer

   EN    FR    IT 

 










Legend :    VFR   Marginal VFR   IFR   Intensive IFR   Very Intensive IFR
Visi :
Ceiling :
>= 8 km
>= 3000ft
5 to 8 km
1000 to 3000 ft
1500m to 5 km
500 to 1000 ft
800 to 1500m
200 to 500 ft
< 800m
< 200 ft
Symbols :   Thunderstorms  Fog  Heavy snow  Heavy precipitations  Wind > 20 kt
SIGMETs :     Misc.  Thunderstorms  Icing  Turbulence  Mountain Waves  Volcanic Ashes







- Airport Elevation : 106 ft
- IATA code : NRN


EDLV - Weeze

CURRENT METAR :
  • 180750Z 14004KT CAVOK 04/00 Q1018

EXPIRED METARs :
  • 180720Z 14004KT CAVOK 04/00 Q1018
  • 180650Z 15005KT CAVOK 03/M00 Q1018
  • 180620Z 15004KT CAVOK 04/M00 Q1018
  • 180550Z 15004KT CAVOK 04/00 Q1018
  • 180520Z 14004KT CAVOK 04/M00 Q1019
  • 180450Z 13003KT CAVOK 04/00 Q1019

TAF TAF EDLV
Valid from the 18 at 06:00 until the 19 at 06:00 UTC


180500Z 1806/1906 16005KT CAVOK
BECMG 1818/1821 22007KT
BECMG 1900/1903 BKN012
PROB40
TEMPO 1902/1906 4000 -RA BKN007
No reported NOTAMs for that airfield.



MET'MAP, your aeronautical weather chart ! - Copyright ORBIFLY December 2007 - Disclaimer

ORBIFLY MET'MAP TEAM :

Programming & Development : Alexandra Zaïnal
Concept & Development : Baudouin d'Aumeries
Co-Development & Prog : Marc-Olivier Méhu
Technical & hardware support : Manuel Goepfert

Contact : metmap@orbifly.com




SOURCES & CREDITS :

   NOAA